Aplington, Iowa
Current Conditions -  °F | °C
As of 11:35 PM on Sunday 21 Dec 2014 (Local Time) from KIFA Reporting Station
Light Rain Light Rain  
Wind Chill: -1°   Ceiling: 600
Heat Index:   Visibility: 4mi
Dew Point:   Wind: 18mph
Humidity: 95%   Direction: 150°SSE
Pressure: 29.75"   Gusts: 24mph
Location:  42.58°N, 92.88°W
Report Text: KIFA 220535Z AUTO 15016G21KT 4SM -RA OVC006 04/03 A2975 RMK AO2 T00380030
Loading
Personal Weather Stations






























Interactive Weather Map New forecast layout! Learn more

10-Day Weather Forecast

Advertisements
Track Severe Weather on mobile